createdAt,value
2018-09-19T00:00:16.067Z,22.92
2018-09-19T00:02:44.879Z,22.92
2018-09-19T00:05:13.318Z,22.87
2018-09-19T00:07:42.629Z,22.69
2018-09-19T00:10:11.095Z,22.54
2018-09-19T00:12:39.799Z,22.50
2018-09-19T00:15:08.298Z,22.49
2018-09-19T00:17:37.308Z,22.48
2018-09-19T00:20:05.848Z,22.49
2018-09-19T00:22:34.631Z,22.51
2018-09-19T00:25:03.177Z,22.52
2018-09-19T00:27:31.927Z,22.47
2018-09-19T00:30:00.431Z,22.43
2018-09-19T00:32:29.070Z,22.41
2018-09-19T00:34:57.711Z,22.41
2018-09-19T00:37:26.446Z,22.42
2018-09-19T00:39:55.235Z,22.43
2018-09-19T00:42:46.442Z,22.41
2018-09-19T00:45:15.012Z,22.38
2018-09-19T00:47:43.585Z,22.38
2018-09-19T00:50:12.198Z,22.36
2018-09-19T00:52:54.302Z,22.37
2018-09-19T00:55:22.878Z,22.36
2018-09-19T00:57:51.690Z,22.32
2018-09-19T01:00:20.447Z,22.31
2018-09-19T01:02:53.973Z,22.26
2018-09-19T01:05:22.535Z,22.23
2018-09-19T01:10:18.567Z,22.18
2018-09-19T01:12:47.169Z,22.21
2018-09-19T01:15:15.909Z,22.16
2018-09-19T01:17:44.476Z,22.13
2018-09-19T01:20:13.057Z,22.08
2018-09-19T01:22:41.693Z,22.03
2018-09-19T01:25:10.340Z,22.02
2018-09-19T01:27:38.851Z,21.96
2018-09-19T01:30:07.507Z,21.85
2018-09-19T01:32:36.220Z,21.75
2018-09-19T01:35:04.798Z,21.73
2018-09-19T01:37:33.345Z,21.74
2018-09-19T01:40:02.025Z,21.72
2018-09-19T01:42:30.865Z,21.71
2018-09-19T01:44:59.389Z,21.70
2018-09-19T01:47:28.341Z,21.67
2018-09-19T01:49:56.783Z,21.67
2018-09-19T01:52:25.841Z,21.65
2018-09-19T01:54:54.228Z,21.62
2018-09-19T01:57:22.735Z,21.62
2018-09-19T01:59:51.245Z,21.61
2018-09-19T02:02:29.089Z,21.65
2018-09-19T02:04:58.011Z,21.66
2018-09-19T02:07:27.146Z,21.64
2018-09-19T02:09:55.551Z,21.52
2018-09-19T02:12:24.106Z,21.39
2018-09-19T02:14:52.600Z,21.33
2018-09-19T02:17:21.099Z,21.29
2018-09-19T02:19:49.720Z,21.28
2018-09-19T02:22:18.227Z,21.30
2018-09-19T02:24:46.653Z,21.29
2018-09-19T02:27:15.557Z,21.35
2018-09-19T02:29:44.368Z,21.36
2018-09-19T02:32:12.904Z,21.35
2018-09-19T02:34:41.389Z,21.32
2018-09-19T02:37:09.861Z,21.31
2018-09-19T02:39:38.411Z,21.26
2018-09-19T02:42:06.848Z,21.24
2018-09-19T02:44:35.336Z,21.16
2018-09-19T02:47:04.140Z,21.13
2018-09-19T02:49:32.584Z,21.12
2018-09-19T02:52:01.216Z,21.09
2018-09-19T02:54:30.793Z,21.09
2018-09-19T02:56:59.504Z,21.11
2018-09-19T02:59:28.517Z,21.07
2018-09-19T03:01:57.171Z,21.07
2018-09-19T03:04:25.655Z,21.04
2018-09-19T03:06:54.119Z,21.00
2018-09-19T03:09:22.547Z,20.98
2018-09-19T03:11:51.125Z,21.01
2018-09-19T03:14:19.578Z,21.02
2018-09-19T03:16:48.062Z,21.00
2018-09-19T03:19:16.532Z,20.95
2018-09-19T03:21:45.153Z,20.87
2018-09-19T03:24:14.552Z,20.87
2018-09-19T03:26:42.974Z,20.82
2018-09-19T03:29:11.426Z,20.79
2018-09-19T03:31:40.572Z,20.73
2018-09-19T03:34:09.057Z,20.70
2018-09-19T03:36:37.513Z,20.71
2018-09-19T03:39:08.174Z,20.69
2018-09-19T03:41:36.599Z,20.68
2018-09-19T03:44:05.476Z,20.74
2018-09-19T03:46:33.936Z,20.76
2018-09-19T03:49:02.515Z,20.76
2018-09-19T03:51:31.038Z,20.70
2018-09-19T03:54:01.450Z,20.67
2018-09-19T03:56:29.887Z,20.64
2018-09-19T03:58:58.968Z,20.59
2018-09-19T04:01:27.735Z,20.58
2018-09-19T04:03:56.303Z,20.56
2018-09-19T04:06:25.052Z,20.53
2018-09-19T04:08:56.738Z,20.51
2018-09-19T04:11:25.214Z,20.53
2018-09-19T04:13:53.714Z,20.51
2018-09-19T04:16:22.189Z,20.48
2018-09-19T04:18:50.657Z,20.45
2018-09-19T04:21:19.162Z,20.46
2018-09-19T04:23:48.826Z,20.46
2018-09-19T04:26:18.222Z,20.43
2018-09-19T04:28:48.566Z,20.42
2018-09-19T04:31:18.367Z,20.40
2018-09-19T04:33:47.107Z,20.41
2018-09-19T04:36:15.822Z,20.39
2018-09-19T04:38:44.604Z,20.40
2018-09-19T04:41:13.132Z,20.37
2018-09-19T04:43:42.046Z,20.38
2018-09-19T04:46:10.525Z,20.35
2018-09-19T04:48:38.994Z,20.37
2018-09-19T04:51:07.897Z,20.35
2018-09-19T04:53:36.526Z,20.26
2018-09-19T04:56:05.362Z,20.27
2018-09-19T04:58:34.013Z,20.26
2018-09-19T05:01:02.569Z,20.27
2018-09-19T05:03:31.424Z,20.26
2018-09-19T05:05:59.990Z,20.27
2018-09-19T05:08:28.493Z,20.29
2018-09-19T05:10:56.994Z,20.31
2018-09-19T05:13:25.651Z,20.31
2018-09-19T05:15:54.124Z,20.29
2018-09-19T05:18:22.858Z,20.23
2018-09-19T05:20:51.467Z,20.21
2018-09-19T05:23:20.283Z,20.22
2018-09-19T05:25:48.786Z,20.22
2018-09-19T05:28:17.342Z,20.23
2018-09-19T05:30:45.825Z,20.23
2018-09-19T05:33:14.366Z,20.25
2018-09-19T05:35:42.896Z,20.22
2018-09-19T05:38:11.391Z,20.17
2018-09-19T05:40:39.894Z,20.15
2018-09-19T05:43:08.457Z,20.18
2018-09-19T05:45:36.989Z,20.13
2018-09-19T05:48:05.434Z,20.10
2018-09-19T05:50:34.258Z,20.14
2018-09-19T05:53:02.836Z,20.17
2018-09-19T05:55:31.568Z,20.20
2018-09-19T05:58:00.065Z,20.20
2018-09-19T06:00:28.662Z,20.20
2018-09-19T06:02:57.486Z,20.22
2018-09-19T06:05:26.837Z,20.26
2018-09-19T06:07:55.421Z,20.28
2018-09-19T06:10:24.261Z,20.29
2018-09-19T06:12:57.986Z,20.30
2018-09-19T06:15:26.912Z,20.24
2018-09-19T06:17:55.422Z,20.21
2018-09-19T06:20:24.012Z,20.26
2018-09-19T06:22:52.569Z,20.32
2018-09-19T06:25:21.134Z,20.37
2018-09-19T06:27:50.547Z,20.43
2018-09-19T06:30:19.221Z,20.47
2018-09-19T06:32:48.000Z,20.49
2018-09-19T06:35:16.428Z,20.51
2018-09-19T06:37:45.219Z,20.53
2018-09-19T06:40:13.792Z,20.56
2018-09-19T06:42:42.568Z,20.62
2018-09-19T06:45:11.209Z,20.72
2018-09-19T06:47:39.863Z,20.78
2018-09-19T06:50:08.415Z,20.81
2018-09-19T06:52:36.999Z,20.79
2018-09-19T06:55:05.719Z,20.79
2018-09-19T06:57:34.327Z,20.78
2018-09-19T07:00:03.436Z,20.80
2018-09-19T07:02:32.007Z,20.83
2018-09-19T07:05:00.697Z,20.85
2018-09-19T07:07:39.323Z,20.86
2018-09-19T07:10:13.083Z,20.88
2018-09-19T07:12:41.697Z,20.94
2018-09-19T07:15:10.416Z,20.95
2018-09-19T07:17:38.975Z,20.96
2018-09-19T07:20:07.498Z,20.98
2018-09-19T07:22:36.015Z,20.99
2018-09-19T07:25:04.772Z,20.97
2018-09-19T07:27:33.551Z,20.95
2018-09-19T07:30:02.278Z,20.95
2018-09-19T07:32:30.881Z,20.95
2018-09-19T07:34:59.338Z,20.98
2018-09-19T07:37:27.862Z,21.01
2018-09-19T07:39:56.420Z,21.06
2018-09-19T07:42:25.128Z,21.09
2018-09-19T07:44:53.900Z,21.11
2018-09-19T07:47:22.533Z,21.17
2018-09-19T07:49:51.176Z,21.23
2018-09-19T07:52:19.730Z,21.29
2018-09-19T07:54:48.364Z,21.35
2018-09-19T07:57:16.854Z,21.45
2018-09-19T07:59:45.503Z,21.53
2018-09-19T08:02:15.969Z,21.62
2018-09-19T08:04:51.113Z,21.68
2018-09-19T08:07:19.703Z,21.75
2018-09-19T08:09:48.269Z,21.83
2018-09-19T08:12:17.237Z,21.93
2018-09-19T08:17:24.334Z,22.10
2018-09-19T08:19:53.644Z,22.14
2018-09-19T08:22:22.791Z,22.21
2018-09-19T08:24:51.425Z,22.28
2018-09-19T08:27:19.937Z,22.39
2018-09-19T08:29:48.493Z,22.47
2018-09-19T08:32:17.272Z,22.56
2018-09-19T08:34:47.074Z,22.65
2018-09-19T08:37:15.554Z,22.69
2018-09-19T08:39:44.155Z,22.76
2018-09-19T08:42:12.848Z,22.84
2018-09-19T08:44:45.416Z,22.91
2018-09-19T08:47:14.186Z,22.99
2018-09-19T08:49:42.976Z,23.05
2018-09-19T08:52:11.485Z,23.13
2018-09-19T08:54:40.571Z,23.22
2018-09-19T08:57:09.564Z,23.36
2018-09-19T08:59:38.849Z,23.45
2018-09-19T09:02:13.854Z,23.65
2018-09-19T09:04:45.307Z,23.80
2018-09-19T09:07:13.819Z,24.01
2018-09-19T09:09:42.287Z,24.14
2018-09-19T09:12:12.498Z,24.20
2018-09-19T09:14:41.161Z,24.32
2018-09-19T09:17:10.291Z,24.46
2018-09-19T09:19:38.857Z,24.63
2018-09-19T09:22:07.594Z,24.92
2018-09-19T09:24:37.576Z,25.18
2018-09-19T09:27:10.251Z,25.22
2018-09-19T09:29:38.949Z,25.43
2018-09-19T09:32:08.007Z,25.64
2018-09-19T09:34:35.963Z,25.85
2018-09-19T09:37:03.995Z,25.90
2018-09-19T09:39:31.780Z,26.20
2018-09-19T09:41:59.646Z,26.42
2018-09-19T09:44:27.648Z,26.39
2018-09-19T09:46:55.449Z,26.62
2018-09-19T09:49:23.717Z,26.69
2018-09-19T09:51:51.975Z,26.83
2018-09-19T09:54:19.833Z,27.12
2018-09-19T09:56:47.545Z,27.39
2018-09-19T09:59:15.524Z,27.71
2018-09-19T10:01:43.721Z,27.89
2018-09-19T10:04:12.481Z,28.40
2018-09-19T10:06:40.706Z,28.71
2018-09-19T10:09:09.285Z,29.24
2018-09-19T10:11:37.145Z,29.39
2018-09-19T10:14:11.818Z,30.08
2018-09-19T10:16:39.620Z,30.63
2018-09-19T10:19:09.266Z,31.15
2018-09-19T10:21:37.902Z,31.41
2018-09-19T10:24:06.517Z,31.43
2018-09-19T10:26:35.419Z,31.60
2018-09-19T10:29:03.954Z,31.68
2018-09-19T10:31:32.623Z,31.89
2018-09-19T10:34:02.036Z,31.82
2018-09-19T10:36:30.592Z,31.72
2018-09-19T10:38:59.851Z,31.84
2018-09-19T10:41:28.698Z,31.63
2018-09-19T10:43:57.946Z,31.04
2018-09-19T10:46:26.792Z,30.52
2018-09-19T10:48:55.561Z,30.00
2018-09-19T10:51:24.150Z,29.61
2018-09-19T10:53:53.392Z,29.02
2018-09-19T10:56:22.023Z,28.51
2018-09-19T10:58:50.973Z,28.18
2018-09-19T11:01:22.902Z,27.90
2018-09-19T11:03:51.788Z,27.49
2018-09-19T11:06:20.664Z,27.37
2018-09-19T11:08:49.324Z,27.26
2018-09-19T11:11:18.237Z,27.11
2018-09-19T11:13:46.892Z,27.05
2018-09-19T11:16:15.509Z,26.96
2018-09-19T11:18:44.089Z,27.01
2018-09-19T11:21:13.220Z,27.10
2018-09-19T11:23:45.151Z,27.25
2018-09-19T11:26:14.257Z,27.44
2018-09-19T11:28:42.945Z,27.67
2018-09-19T11:31:11.852Z,28.03
2018-09-19T11:33:45.816Z,28.35
2018-09-19T11:36:15.101Z,28.82
2018-09-19T11:38:43.920Z,29.30
2018-09-19T11:41:12.623Z,29.72
2018-09-19T11:43:41.497Z,30.00
2018-09-19T11:46:10.936Z,30.39
2018-09-19T11:48:41.791Z,30.81
2018-09-19T11:51:10.934Z,31.14
2018-09-19T11:53:40.356Z,31.48
2018-09-19T11:56:09.607Z,31.73
2018-09-19T11:58:49.813Z,31.84
2018-09-19T12:01:18.779Z,32.08
2018-09-19T12:03:47.823Z,32.13
2018-09-19T12:06:16.595Z,32.51
2018-09-19T12:08:45.666Z,32.76
2018-09-19T12:11:15.016Z,32.96
2018-09-19T12:13:43.476Z,32.97
2018-09-19T12:16:12.066Z,33.12
2018-09-19T12:18:40.807Z,33.12
2018-09-19T12:21:09.798Z,32.93
2018-09-19T12:23:38.700Z,32.92
2018-09-19T12:26:07.348Z,32.82
2018-09-19T12:28:36.269Z,33.06
2018-09-19T12:31:05.486Z,33.24
2018-09-19T12:33:34.479Z,33.46
2018-09-19T12:36:03.147Z,33.59
2018-09-19T12:38:31.791Z,33.66
2018-09-19T12:41:00.331Z,33.73
2018-09-19T12:43:29.101Z,33.61
2018-09-19T12:45:57.892Z,33.66
2018-09-19T12:48:26.381Z,33.93
2018-09-19T12:50:54.868Z,34.09
2018-09-19T12:53:24.439Z,34.31
2018-09-19T12:55:54.244Z,34.69
2018-09-19T12:58:23.162Z,34.75
2018-09-19T13:00:52.466Z,34.91
2018-09-19T13:03:21.204Z,35.18
2018-09-19T13:05:50.656Z,35.38
2018-09-19T13:08:19.249Z,35.68
2018-09-19T13:10:47.936Z,36.01
2018-09-19T13:13:16.466Z,36.04
2018-09-19T13:15:45.380Z,36.23
2018-09-19T13:18:13.885Z,36.51
2018-09-19T13:20:42.789Z,36.39
2018-09-19T13:23:11.390Z,36.34
2018-09-19T13:25:40.454Z,36.25
2018-09-19T13:28:09.037Z,35.86
2018-09-19T13:30:37.963Z,35.62
2018-09-19T13:33:06.987Z,35.31
2018-09-19T13:35:35.543Z,34.83
2018-09-19T13:38:04.557Z,34.19
2018-09-19T13:40:33.223Z,33.98
2018-09-19T13:43:02.092Z,33.85
2018-09-19T13:45:30.630Z,33.70
2018-09-19T13:48:00.259Z,33.52
2018-09-19T13:50:43.914Z,33.46
2018-09-19T13:53:12.504Z,33.43
2018-09-19T13:55:41.116Z,33.41
2018-09-19T13:58:10.469Z,33.45
2018-09-19T14:00:39.346Z,33.25
2018-09-19T14:03:07.877Z,33.17
2018-09-19T14:05:36.388Z,33.16
2018-09-19T14:08:06.035Z,33.07
2018-09-19T14:10:34.973Z,32.93
2018-09-19T14:13:03.798Z,32.65
2018-09-19T14:15:32.423Z,32.64
2018-09-19T14:18:01.221Z,32.46
2018-09-19T14:20:29.711Z,32.22
2018-09-19T14:22:58.412Z,32.01
2018-09-19T14:25:26.917Z,31.86
2018-09-19T14:27:55.653Z,31.84
2018-09-19T14:30:24.298Z,31.76
2018-09-19T14:32:52.936Z,31.61
2018-09-19T14:35:21.607Z,31.42
2018-09-19T14:37:51.598Z,31.27
2018-09-19T14:40:20.269Z,31.16
2018-09-19T14:42:58.523Z,31.05
2018-09-19T14:45:27.066Z,30.95
2018-09-19T14:47:55.887Z,30.87
2018-09-19T14:50:24.986Z,30.83
2018-09-19T14:52:53.819Z,30.74
2018-09-19T14:55:22.554Z,30.65
2018-09-19T14:57:51.250Z,30.61
2018-09-19T15:00:20.254Z,30.58
2018-09-19T15:02:49.457Z,30.47
2018-09-19T15:05:18.763Z,30.41
2018-09-19T15:07:47.443Z,30.34
2018-09-19T15:10:15.970Z,30.28
2018-09-19T15:12:44.634Z,30.22
2018-09-19T15:15:13.600Z,30.21
2018-09-19T15:17:42.300Z,30.16
2018-09-19T15:20:11.058Z,30.10
2018-09-19T15:22:39.771Z,30.08
2018-09-19T15:25:08.537Z,30.07
2018-09-19T15:27:38.021Z,30.03
2018-09-19T15:30:07.129Z,30.04
2018-09-19T15:32:36.360Z,30.01
2018-09-19T15:35:06.210Z,30.06
2018-09-19T15:37:34.932Z,30.04
2018-09-19T15:40:03.484Z,30.03
2018-09-19T15:42:32.363Z,29.96
2018-09-19T15:45:02.039Z,29.94
2018-09-19T15:47:30.759Z,29.92
2018-09-19T15:49:59.385Z,29.81
2018-09-19T15:52:31.944Z,29.84
2018-09-19T15:55:00.784Z,29.82
2018-09-19T15:57:30.648Z,29.76
2018-09-19T16:00:00.287Z,29.74
2018-09-19T16:02:29.080Z,29.70
2018-09-19T16:05:00.662Z,29.64
2018-09-19T16:07:31.123Z,29.65
2018-09-19T16:09:59.731Z,29.57
2018-09-19T16:12:28.368Z,29.47
2018-09-19T16:14:56.952Z,29.36
2018-09-19T16:17:25.395Z,29.33
2018-09-19T16:19:53.970Z,29.27
2018-09-19T16:22:22.532Z,29.27
2018-09-19T16:24:52.618Z,29.23
2018-09-19T16:27:21.050Z,29.22
2018-09-19T16:29:49.533Z,29.19
2018-09-19T16:32:18.246Z,29.16
2018-09-19T16:34:46.832Z,29.08
2018-09-19T16:37:15.348Z,29.04
2018-09-19T16:39:44.028Z,29.01
2018-09-19T16:42:12.709Z,28.95
2018-09-19T16:44:41.278Z,28.95
2018-09-19T16:47:11.544Z,28.95
2018-09-19T16:49:40.027Z,28.90
2018-09-19T16:52:08.674Z,28.83
2018-09-19T16:54:37.203Z,28.83
2018-09-19T16:57:05.833Z,28.79
2018-09-19T16:59:34.260Z,28.74
2018-09-19T17:02:03.011Z,28.71
2018-09-19T17:04:31.749Z,28.67
2018-09-19T17:07:01.347Z,28.60
2018-09-19T17:09:30.186Z,28.53
2018-09-19T17:11:58.848Z,28.48
2018-09-19T17:14:27.467Z,28.46
2018-09-19T17:16:56.195Z,28.35
2018-09-19T17:19:24.982Z,28.33
2018-09-19T17:21:53.624Z,28.27
2018-09-19T17:24:22.421Z,28.21
2018-09-19T17:26:50.907Z,28.12
2018-09-19T17:29:19.588Z,28.06
2018-09-19T17:31:48.374Z,27.99
2018-09-19T17:34:17.310Z,27.95
2018-09-19T17:36:46.069Z,27.89
2018-09-19T17:39:14.629Z,27.85
2018-09-19T17:41:43.628Z,27.80
2018-09-19T17:44:12.315Z,27.76
2018-09-19T17:46:40.902Z,27.71
2018-09-19T17:49:09.637Z,27.68
2018-09-19T17:51:40.148Z,27.63
2018-09-19T17:54:08.950Z,27.53
2018-09-19T17:56:39.564Z,27.51
2018-09-19T17:59:08.552Z,27.47
2018-09-19T18:01:37.406Z,27.42
2018-09-19T18:04:06.174Z,27.41
2018-09-19T18:06:34.776Z,27.38
2018-09-19T18:09:03.415Z,27.36
2018-09-19T18:11:32.152Z,27.33
2018-09-19T18:14:00.794Z,27.29
2018-09-19T18:16:29.320Z,27.24
2018-09-19T18:18:57.899Z,27.23
2018-09-19T18:21:27.674Z,27.18
2018-09-19T18:23:56.908Z,27.12
2018-09-19T18:26:25.859Z,27.07
2018-09-19T18:28:54.429Z,27.04
2018-09-19T18:31:23.095Z,27.04
2018-09-19T18:33:51.944Z,27.00
2018-09-19T18:36:20.507Z,26.98
2018-09-19T18:38:49.260Z,26.96
2018-09-19T18:41:17.894Z,26.93
2018-09-19T18:43:46.504Z,26.89
2018-09-19T18:46:15.292Z,26.84
2018-09-19T18:48:43.868Z,26.79
2018-09-19T18:51:14.328Z,26.77
2018-09-19T18:53:42.989Z,26.72
2018-09-19T18:56:11.600Z,26.66
2018-09-19T18:58:40.275Z,26.53
2018-09-19T19:01:09.661Z,26.50
2018-09-19T19:03:38.303Z,26.52
2018-09-19T19:06:07.032Z,26.51
2018-09-19T19:08:36.703Z,26.48
2018-09-19T19:11:05.485Z,26.47
2018-09-19T19:13:34.141Z,26.43
2018-09-19T19:16:02.793Z,26.31
2018-09-19T19:18:31.440Z,26.27
2018-09-19T19:20:59.923Z,26.23
2018-09-19T19:23:28.800Z,26.19
2018-09-19T19:25:57.581Z,26.18
2018-09-19T19:28:26.763Z,26.18
2018-09-19T19:30:55.334Z,26.18
2018-09-19T19:33:24.024Z,26.20
2018-09-19T19:35:52.580Z,26.20
2018-09-19T19:38:21.194Z,26.18
2018-09-19T19:40:49.904Z,26.14
2018-09-19T19:43:18.355Z,26.07
2018-09-19T19:45:46.930Z,25.97
2018-09-19T19:48:15.714Z,25.88
2018-09-19T19:50:44.698Z,25.85
2018-09-19T19:53:13.736Z,25.83
2018-09-19T19:55:42.272Z,25.82
2018-09-19T19:58:11.448Z,25.81
2018-09-19T20:00:40.178Z,25.79
2018-09-19T20:03:09.075Z,25.75
2018-09-19T20:05:38.250Z,25.71
2018-09-19T20:08:07.256Z,25.68
2018-09-19T20:10:37.043Z,25.63
2018-09-19T20:13:06.239Z,25.62
2018-09-19T20:15:34.957Z,25.58
2018-09-19T20:18:03.757Z,25.58
2018-09-19T20:20:32.419Z,25.55
2018-09-19T20:23:01.010Z,25.52
2018-09-19T20:25:29.705Z,25.49
2018-09-19T20:27:58.542Z,25.46
2018-09-19T20:30:28.209Z,25.39
2018-09-19T20:32:56.877Z,25.33
2018-09-19T20:35:25.597Z,25.28
2018-09-19T20:37:54.351Z,25.29
2018-09-19T20:40:23.714Z,25.33
2018-09-19T20:42:52.989Z,25.30
2018-09-19T20:45:21.745Z,25.27
2018-09-19T20:47:50.401Z,25.21
2018-09-19T20:50:19.177Z,25.16
2018-09-19T20:52:47.778Z,25.11
2018-09-19T20:55:16.416Z,25.13
2018-09-19T20:57:45.422Z,25.16
2018-09-19T21:00:14.132Z,25.13
2018-09-19T21:02:47.862Z,25.11
2018-09-19T21:05:16.418Z,25.12
2018-09-19T21:07:45.104Z,25.15
2018-09-19T21:10:13.878Z,25.12
2018-09-19T21:12:47.493Z,25.07
2018-09-19T21:15:16.100Z,25.02
2018-09-19T21:17:44.773Z,25.01
2018-09-19T21:20:13.378Z,24.99
2018-09-19T21:22:42.032Z,24.99
2018-09-19T21:25:10.667Z,24.96
2018-09-19T21:27:39.338Z,24.94
2018-09-19T21:30:07.962Z,24.92
2018-09-19T21:32:36.500Z,24.89
2018-09-19T21:35:05.269Z,24.86
2018-09-19T21:37:34.096Z,24.83
2018-09-19T21:40:02.785Z,24.78
2018-09-19T21:42:31.354Z,24.72
2018-09-19T21:44:59.899Z,24.71
2018-09-19T21:47:28.349Z,24.67
2018-09-19T21:49:57.125Z,24.68
2018-09-19T21:52:26.186Z,24.65
2018-09-19T21:54:54.934Z,24.63
2018-09-19T21:57:23.515Z,24.56
2018-09-19T21:59:52.163Z,24.46
2018-09-19T22:02:20.843Z,24.40
2018-09-19T22:04:49.405Z,24.32
2018-09-19T22:07:18.006Z,24.27
2018-09-19T22:09:46.567Z,24.26
2018-09-19T22:12:15.050Z,24.23
2018-09-19T22:14:44.035Z,24.18
2018-09-19T22:17:12.553Z,24.15
2018-09-19T22:19:41.043Z,24.14
2018-09-19T22:22:09.515Z,24.07
2018-09-19T22:24:37.973Z,23.99
2018-09-19T22:27:06.458Z,23.98
2018-09-19T22:29:34.938Z,24.00
2018-09-19T22:32:03.859Z,23.99
2018-09-19T22:34:32.301Z,24.02
2018-09-19T22:37:00.790Z,24.02
2018-09-19T22:39:29.216Z,23.97
2018-09-19T22:41:57.642Z,23.92
2018-09-19T22:44:26.499Z,23.89
2018-09-19T22:46:55.419Z,23.85
2018-09-19T22:49:24.246Z,23.81
2018-09-19T22:51:52.795Z,23.81
2018-09-19T22:54:21.208Z,23.80
2018-09-19T22:56:49.650Z,23.80
2018-09-19T22:59:18.190Z,23.76
2018-09-19T23:01:46.961Z,23.74
2018-09-19T23:04:15.575Z,23.71
2018-09-19T23:06:44.169Z,23.67
2018-09-19T23:09:12.692Z,23.61
2018-09-19T23:11:42.281Z,23.53
2018-09-19T23:14:45.034Z,23.54
2018-09-19T23:17:13.757Z,23.57
2018-09-19T23:19:42.641Z,23.56
2018-09-19T23:22:11.533Z,23.54
2018-09-19T23:24:40.371Z,23.51
2018-09-19T23:27:09.062Z,23.44
2018-09-19T23:29:38.005Z,23.38
2018-09-19T23:32:06.799Z,23.30
2018-09-19T23:34:35.687Z,23.27
2018-09-19T23:37:04.475Z,23.22
2018-09-19T23:39:33.130Z,23.21
2018-09-19T23:42:01.977Z,23.22
2018-09-19T23:44:31.144Z,23.22
2018-09-19T23:47:00.139Z,23.23
2018-09-19T23:49:29.053Z,23.22
2018-09-19T23:51:58.431Z,23.17
2018-09-19T23:54:27.542Z,23.14
2018-09-19T23:56:56.930Z,23.11
2018-09-19T23:59:25.551Z,23.08
